createdAt,value
2019-05-11T00:01:21.681Z,3.10
2019-05-11T00:03:52.356Z,3.05
2019-05-11T00:06:23.213Z,3.50
2019-05-11T00:08:53.719Z,3.10
2019-05-11T00:11:24.357Z,3.10
2019-05-11T00:13:54.862Z,3.20
2019-05-11T00:16:25.397Z,3.60
2019-05-11T00:18:56.138Z,3.20
2019-05-11T00:21:26.519Z,3.12
2019-05-11T00:23:57.267Z,3.52
2019-05-11T00:26:27.687Z,3.12
2019-05-11T00:28:58.233Z,3.05
2019-05-11T00:31:28.675Z,3.50
2019-05-11T00:33:59.075Z,3.33
2019-05-11T00:36:29.975Z,3.27
2019-05-11T00:39:01.322Z,3.47
2019-05-11T00:41:32.197Z,3.70
2019-05-11T00:44:02.829Z,3.50
2019-05-11T00:46:33.432Z,3.37
2019-05-11T00:49:03.818Z,3.27
2019-05-11T00:51:34.466Z,3.15
2019-05-11T00:54:05.205Z,3.60
2019-05-11T00:56:35.906Z,3.25
2019-05-11T00:59:20.987Z,3.42
2019-05-11T01:01:38.664Z,3.45
2019-05-11T01:04:09.118Z,3.10
2019-05-11T01:06:39.872Z,3.05
2019-05-11T01:09:10.670Z,3.40
2019-05-11T01:11:41.048Z,3.05
2019-05-11T01:14:12.007Z,3.35
2019-05-11T01:16:42.986Z,3.30
2019-05-11T01:19:13.508Z,3.33
2019-05-11T01:21:43.918Z,3.00
2019-05-11T01:24:14.372Z,3.65
2019-05-11T01:26:44.757Z,3.45
2019-05-11T01:29:15.176Z,3.30
2019-05-11T01:31:45.606Z,3.20
2019-05-11T01:34:16.313Z,2.90
2019-05-11T01:36:46.840Z,3.45
2019-05-11T01:39:17.343Z,3.20
2019-05-11T01:41:48.136Z,2.92
2019-05-11T01:44:18.596Z,3.37
2019-05-11T01:46:49.056Z,3.50
2019-05-11T01:49:19.479Z,3.55
2019-05-11T01:51:50.237Z,3.33
2019-05-11T01:54:20.647Z,3.27
2019-05-11T01:56:51.160Z,3.33
2019-05-11T01:59:21.857Z,3.40
2019-05-11T02:01:54.340Z,3.12
2019-05-11T02:04:25.017Z,3.12
2019-05-11T02:06:55.592Z,3.02
2019-05-11T02:09:26.016Z,3.00
2019-05-11T02:11:58.383Z,3.20
2019-05-11T02:14:29.321Z,3.20
2019-05-11T02:16:59.785Z,3.30
2019-05-11T02:19:30.280Z,3.20
2019-05-11T02:22:01.220Z,3.20
2019-05-11T02:24:31.615Z,2.80
2019-05-11T02:27:02.027Z,3.45
2019-05-11T02:29:33.029Z,3.37
2019-05-11T02:32:03.815Z,3.33
2019-05-11T02:34:34.363Z,3.05
2019-05-11T02:37:05.123Z,3.00
2019-05-11T02:39:35.661Z,3.20
2019-05-11T02:42:06.103Z,3.00
2019-05-11T02:44:36.669Z,2.75
2019-05-11T02:47:07.256Z,3.30
2019-05-11T02:49:37.730Z,3.10
2019-05-11T02:52:08.287Z,3.00
2019-05-11T02:54:40.422Z,2.90
2019-05-11T02:57:10.848Z,3.17
2019-05-11T02:59:41.413Z,2.87
2019-05-11T03:02:12.150Z,2.90
2019-05-11T03:04:42.641Z,2.90
2019-05-11T03:07:13.528Z,3.10
2019-05-11T03:09:44.121Z,3.00
2019-05-11T03:12:14.565Z,2.83
2019-05-11T03:14:45.711Z,2.87
2019-05-11T03:17:17.472Z,2.98
2019-05-11T03:19:48.045Z,2.92
2019-05-11T03:22:18.685Z,2.77
2019-05-11T03:24:50.803Z,3.00
2019-05-11T03:27:21.218Z,2.98
2019-05-11T03:29:52.060Z,2.83
2019-05-11T03:32:22.541Z,2.72
2019-05-11T03:34:52.975Z,2.90
2019-05-11T03:37:23.471Z,2.77
2019-05-11T03:39:53.919Z,2.95
2019-05-11T03:42:24.306Z,3.27
2019-05-11T03:44:54.720Z,2.95
2019-05-11T03:47:25.716Z,2.67
2019-05-11T03:49:56.121Z,2.65
2019-05-11T03:52:26.539Z,2.87
2019-05-11T03:54:56.930Z,3.00
2019-05-11T03:57:27.664Z,2.60
2019-05-11T03:59:58.127Z,3.00
2019-05-11T04:02:28.990Z,2.90
2019-05-11T04:04:59.667Z,2.50
2019-05-11T04:07:30.287Z,2.90
2019-05-11T04:10:01.092Z,3.02
2019-05-11T04:12:35.264Z,2.87
2019-05-11T04:15:05.309Z,3.10
2019-05-11T04:17:36.042Z,2.70
2019-05-11T04:20:07.691Z,2.98
2019-05-11T04:22:38.622Z,2.80
2019-05-11T04:25:09.201Z,2.60
2019-05-11T04:27:39.861Z,2.77
2019-05-11T04:30:10.528Z,2.75
2019-05-11T04:32:40.924Z,2.90
2019-05-11T04:35:11.625Z,2.67
2019-05-11T04:37:42.049Z,2.67
2019-05-11T04:40:12.859Z,2.75
2019-05-11T04:42:54.540Z,2.75
2019-05-11T04:45:15.419Z,2.47
2019-05-11T04:47:45.925Z,2.87
2019-05-11T04:50:16.657Z,2.80
2019-05-11T04:52:47.407Z,2.72
2019-05-11T04:55:18.158Z,2.72
2019-05-11T04:57:48.886Z,2.62
2019-05-11T05:00:19.538Z,2.72
2019-05-11T05:02:50.054Z,2.42
2019-05-11T05:05:20.483Z,2.70
2019-05-11T05:07:50.913Z,2.80
2019-05-11T05:10:22.406Z,2.60
2019-05-11T05:12:53.426Z,2.55
2019-05-11T05:15:24.925Z,2.55
2019-05-11T05:17:55.684Z,2.70
2019-05-11T05:20:26.105Z,2.83
2019-05-11T05:22:56.891Z,2.83
2019-05-11T05:25:27.340Z,2.52
2019-05-11T05:27:58.262Z,2.55
2019-05-11T05:30:28.749Z,2.67
2019-05-11T05:32:59.378Z,2.50
2019-05-11T05:35:29.794Z,2.42
2019-05-11T05:38:00.273Z,2.60
2019-05-11T05:40:30.940Z,2.33
2019-05-11T05:43:01.400Z,2.42
2019-05-11T05:45:31.898Z,2.40
2019-05-11T05:48:02.306Z,2.58
2019-05-11T05:50:32.781Z,2.50
2019-05-11T05:53:03.775Z,2.40
2019-05-11T05:55:34.747Z,2.62
2019-05-11T05:58:05.687Z,2.55
2019-05-11T06:00:36.761Z,2.42
2019-05-11T06:03:07.580Z,2.65
2019-05-11T06:05:38.302Z,2.30
2019-05-11T06:08:08.733Z,2.60
2019-05-11T06:10:39.906Z,2.30
2019-05-11T06:13:10.317Z,2.47
2019-05-11T06:15:40.858Z,2.45
2019-05-11T06:18:11.252Z,2.50
2019-05-11T06:20:41.654Z,2.55
2019-05-11T06:23:12.098Z,2.30
2019-05-11T06:25:42.535Z,2.35
2019-05-11T06:28:13.238Z,2.02
2019-05-11T06:30:43.696Z,2.35
2019-05-11T06:33:14.373Z,1.98
2019-05-11T06:35:44.775Z,2.65
2019-05-11T06:38:15.339Z,2.42
2019-05-11T06:40:46.003Z,2.45
2019-05-11T06:43:16.581Z,2.52
2019-05-11T06:45:47.015Z,2.20
2019-05-11T06:48:17.422Z,2.30
2019-05-11T06:50:48.169Z,2.40
2019-05-11T06:53:19.068Z,2.17
2019-05-11T06:55:50.113Z,2.30
2019-05-11T06:58:20.537Z,2.10
2019-05-11T07:00:51.206Z,2.30
2019-05-11T07:03:21.759Z,2.33
2019-05-11T07:05:52.303Z,2.22
2019-05-11T07:08:22.763Z,2.00
2019-05-11T07:10:53.196Z,2.15
2019-05-11T07:13:23.580Z,2.20
2019-05-11T07:15:54.460Z,2.10
2019-05-11T07:18:24.922Z,2.08
2019-05-11T07:20:55.341Z,2.27
2019-05-11T07:23:26.205Z,2.50
2019-05-11T07:26:00.133Z,1.90
2019-05-11T07:28:29.486Z,1.82
2019-05-11T07:31:00.075Z,2.15
2019-05-11T07:33:30.745Z,2.15
2019-05-11T07:36:01.180Z,2.50
2019-05-11T07:38:31.599Z,2.12
2019-05-11T07:41:02.873Z,2.10
2019-05-11T07:43:33.310Z,2.00
2019-05-11T07:46:03.710Z,2.10
2019-05-11T07:48:34.790Z,2.50
2019-05-11T07:51:05.338Z,2.08
2019-05-11T07:53:38.124Z,2.22
2019-05-11T07:56:08.404Z,2.00
2019-05-11T07:58:39.076Z,1.90
2019-05-11T08:01:09.675Z,2.00
2019-05-11T08:03:40.447Z,2.20
2019-05-11T08:06:10.903Z,2.10
2019-05-11T08:08:41.276Z,2.10
2019-05-11T08:11:11.939Z,1.90
2019-05-11T08:13:42.385Z,7.53
2019-05-11T08:16:12.986Z,2.22
2019-05-11T08:18:43.376Z,2.65
2019-05-11T08:21:13.842Z,2.98
2019-05-11T08:23:44.660Z,6.28
2019-05-11T08:26:15.056Z,3.85
2019-05-11T08:28:45.591Z,6.92
2019-05-11T08:31:18.609Z,4.85
2019-05-11T08:33:48.385Z,2.47
2019-05-11T08:36:19.132Z,3.92
2019-05-11T08:38:49.887Z,9.10
2019-05-11T08:41:21.275Z,2.25
2019-05-11T08:43:51.665Z,3.37
2019-05-11T08:46:22.048Z,2.40
2019-05-11T08:48:52.767Z,4.28
2019-05-11T08:51:23.190Z,2.40
2019-05-11T08:53:53.645Z,2.65
2019-05-11T08:56:24.067Z,2.45
2019-05-11T08:58:55.294Z,2.50
2019-05-11T09:01:28.083Z,2.15
2019-05-11T09:03:58.469Z,2.52
2019-05-11T09:06:29.034Z,2.60
2019-05-11T09:08:59.596Z,2.17
2019-05-11T09:11:30.022Z,2.40
2019-05-11T09:14:00.709Z,3.30
2019-05-11T09:16:31.205Z,2.60
2019-05-11T09:19:01.666Z,2.47
2019-05-11T09:21:32.475Z,2.33
2019-05-11T09:24:03.172Z,2.42
2019-05-11T09:26:33.588Z,2.33
2019-05-11T09:29:03.994Z,3.83
2019-05-11T09:31:34.763Z,2.92
2019-05-11T09:34:05.295Z,2.62
2019-05-11T09:36:38.489Z,2.20
2019-05-11T09:39:09.101Z,1.80
2019-05-11T09:41:39.848Z,2.35
2019-05-11T09:44:10.275Z,2.20
2019-05-11T09:46:40.703Z,2.58
2019-05-11T09:49:11.127Z,2.58
2019-05-11T09:51:41.928Z,2.08
2019-05-11T09:54:31.854Z,1.80
2019-05-11T09:57:02.304Z,1.82
2019-05-11T09:59:32.909Z,1.80
2019-05-11T10:02:03.468Z,2.00
2019-05-11T10:04:34.428Z,2.60
2019-05-11T10:07:05.173Z,2.12
2019-05-11T10:09:38.202Z,2.10
2019-05-11T10:12:08.347Z,1.82
2019-05-11T10:14:38.751Z,1.90
2019-05-11T10:17:09.156Z,1.90
2019-05-11T10:19:39.870Z,1.90
2019-05-11T10:22:10.733Z,2.10
2019-05-11T10:24:41.500Z,2.05
2019-05-11T10:27:11.990Z,1.90
2019-05-11T10:29:42.496Z,2.20
2019-05-11T10:32:13.255Z,2.02
2019-05-11T10:34:43.996Z,2.00
2019-05-11T10:37:14.906Z,1.87
2019-05-11T10:39:45.742Z,1.85
2019-05-11T10:42:17.973Z,2.00
2019-05-11T10:44:48.655Z,2.08
2019-05-11T10:47:19.346Z,1.87
2019-05-11T10:49:49.870Z,2.02
2019-05-11T10:52:20.981Z,2.02
2019-05-11T10:54:53.059Z,1.95
2019-05-11T10:57:23.797Z,1.98
2019-05-11T10:59:54.194Z,2.05
2019-05-11T11:02:24.892Z,2.20
2019-05-11T11:04:55.815Z,1.98
2019-05-11T11:07:28.619Z,1.77
2019-05-11T11:09:58.336Z,2.00
2019-05-11T11:12:28.741Z,1.82
2019-05-11T11:14:59.302Z,1.82
2019-05-11T11:17:30.082Z,1.80
2019-05-11T11:20:00.459Z,2.08
2019-05-11T11:22:39.839Z,2.00
2019-05-11T11:25:02.779Z,2.05
2019-05-11T11:27:33.368Z,1.82
2019-05-11T11:30:04.376Z,1.80
2019-05-11T11:32:35.161Z,1.87
2019-05-11T11:35:08.210Z,1.87
2019-05-11T11:37:39.346Z,1.80
2019-05-11T11:40:10.664Z,1.80
2019-05-11T11:42:41.474Z,1.80
2019-05-11T11:45:12.714Z,1.90
2019-05-11T11:47:43.180Z,1.90
2019-05-11T11:50:13.688Z,1.67
2019-05-11T11:52:45.147Z,1.70
2019-05-11T11:55:18.380Z,1.70
2019-05-11T11:57:48.630Z,1.70
2019-05-11T12:00:20.279Z,1.85
2019-05-11T12:02:51.137Z,1.70
2019-05-11T12:05:21.555Z,1.77
2019-05-11T12:07:52.482Z,1.82
2019-05-11T12:10:23.518Z,1.77
2019-05-11T12:12:54.083Z,1.70
2019-05-11T12:15:24.692Z,2.00
2019-05-11T12:17:55.483Z,1.85
2019-05-11T12:20:28.471Z,1.80
2019-05-11T12:22:58.277Z,1.95
2019-05-11T12:25:29.316Z,1.62
2019-05-11T12:28:00.164Z,1.70
2019-05-11T12:30:30.703Z,2.00
2019-05-11T12:33:01.145Z,1.80
2019-05-11T12:35:31.532Z,1.82
2019-05-11T12:38:02.303Z,1.90
2019-05-11T12:40:32.804Z,1.65
2019-05-11T12:43:03.180Z,1.92
2019-05-11T12:45:33.598Z,1.50
2019-05-11T12:48:04.062Z,1.70
2019-05-11T12:50:34.998Z,1.82
2019-05-11T12:53:05.413Z,1.70
2019-05-11T12:55:37.982Z,1.77
2019-05-11T12:58:08.559Z,1.60
2019-05-11T13:00:39.399Z,1.70
2019-05-11T13:03:10.087Z,1.60
2019-05-11T13:05:40.500Z,1.70
2019-05-11T13:08:11.467Z,1.80
2019-05-11T13:10:41.878Z,1.90
2019-05-11T13:13:12.332Z,2.00
2019-05-11T13:15:42.757Z,1.60
2019-05-11T13:18:13.432Z,1.70
2019-05-11T13:20:44.143Z,1.80
2019-05-11T13:23:14.598Z,1.72
2019-05-11T13:25:45.369Z,1.70
2019-05-11T13:28:17.742Z,1.80
2019-05-11T13:30:48.824Z,1.80
2019-05-11T13:33:19.786Z,1.80
2019-05-11T13:35:50.506Z,2.02
2019-05-11T13:38:21.207Z,1.70
2019-05-11T13:40:51.584Z,1.77
2019-05-11T13:43:22.037Z,1.80
2019-05-11T13:45:52.711Z,1.70
2019-05-11T13:48:23.131Z,1.98
2019-05-11T13:50:53.727Z,1.70
2019-05-11T13:53:24.445Z,1.60
2019-05-11T13:55:55.225Z,1.62
2019-05-11T13:58:27.768Z,1.70
2019-05-11T14:00:58.524Z,1.98
2019-05-11T14:03:29.611Z,1.57
2019-05-11T14:06:00.472Z,1.70
2019-05-11T14:08:30.897Z,1.77
2019-05-11T14:11:01.846Z,1.77
2019-05-11T14:13:32.659Z,1.72
2019-05-11T14:16:03.170Z,1.70
2019-05-11T14:18:33.560Z,1.65
2019-05-11T14:21:04.499Z,1.80
2019-05-11T14:23:35.099Z,1.90
2019-05-11T14:26:07.923Z,1.80
2019-05-11T14:28:38.160Z,1.90
2019-05-11T14:31:08.986Z,1.85
2019-05-11T14:33:39.500Z,1.65
2019-05-11T14:36:10.306Z,1.62
2019-05-11T14:38:40.727Z,1.87
2019-05-11T14:41:11.374Z,1.80
2019-05-11T14:43:42.116Z,1.65
2019-05-11T14:46:12.883Z,1.77
2019-05-11T14:48:43.590Z,1.90
2019-05-11T14:51:14.435Z,1.80
2019-05-11T14:53:44.848Z,1.80
2019-05-11T14:56:15.263Z,1.62
2019-05-11T14:58:46.088Z,1.60
2019-05-11T15:01:18.366Z,1.87
2019-05-11T15:03:48.869Z,1.70
2019-05-11T15:06:19.706Z,1.47
2019-05-11T15:08:50.109Z,1.57
2019-05-11T15:11:20.496Z,1.60
2019-05-11T15:13:51.449Z,1.80
2019-05-11T15:16:22.224Z,1.77
2019-05-11T15:18:52.911Z,1.85
2019-05-11T15:21:23.382Z,1.90
2019-05-11T15:23:54.330Z,1.70
2019-05-11T15:26:27.763Z,1.70
2019-05-11T15:28:58.564Z,1.80
2019-05-11T15:31:29.489Z,1.70
2019-05-11T15:33:59.872Z,1.70
2019-05-11T15:36:30.304Z,1.75
2019-05-11T15:39:00.703Z,1.80
2019-05-11T15:41:31.496Z,1.70
2019-05-11T15:44:02.376Z,1.72
2019-05-11T15:46:32.803Z,1.60
2019-05-11T15:49:03.624Z,2.00
2019-05-11T15:51:34.279Z,1.55
2019-05-11T15:54:04.707Z,1.62
2019-05-11T15:56:35.455Z,1.70
2019-05-11T15:59:08.364Z,1.70
2019-05-11T16:01:41.055Z,1.65
2019-05-11T16:04:10.029Z,1.70
2019-05-11T16:06:40.465Z,1.80
2019-05-11T16:09:11.155Z,1.92
2019-05-11T16:11:41.738Z,1.87
2019-05-11T16:14:12.210Z,1.90
2019-05-11T16:16:43.105Z,1.82
2019-05-11T16:19:15.168Z,1.90
2019-05-11T16:21:45.890Z,2.02
2019-05-11T16:24:16.476Z,1.90
2019-05-11T16:26:47.518Z,1.72
2019-05-11T16:29:19.169Z,1.90
2019-05-11T16:31:49.798Z,1.95
2019-05-11T16:34:20.400Z,1.85
2019-05-11T16:36:50.876Z,1.62
2019-05-11T16:39:21.274Z,1.50
2019-05-11T16:41:51.725Z,1.80
2019-05-11T16:44:22.184Z,1.57
2019-05-11T16:46:52.848Z,1.92
2019-05-11T16:49:31.741Z,1.87
2019-05-11T16:51:55.495Z,2.20
2019-05-11T16:54:28.046Z,1.92
2019-05-11T16:56:58.119Z,1.77
2019-05-11T16:59:28.620Z,1.77
2019-05-11T17:01:59.051Z,1.87
2019-05-11T17:04:31.245Z,1.72
2019-05-11T17:07:02.339Z,1.80
2019-05-11T17:09:33.002Z,1.95
2019-05-11T17:12:03.389Z,1.90
2019-05-11T17:14:33.822Z,2.05
2019-05-11T17:17:04.231Z,2.00
2019-05-11T17:19:43.743Z,2.02
2019-05-11T17:22:08.341Z,1.92
2019-05-11T17:24:39.210Z,2.00
2019-05-11T17:27:09.673Z,1.90
2019-05-11T17:29:40.483Z,2.08
2019-05-11T17:32:10.891Z,2.10
2019-05-11T17:34:41.320Z,2.20
2019-05-11T17:37:12.203Z,1.95
2019-05-11T17:39:42.642Z,1.75
2019-05-11T17:42:13.069Z,1.90
2019-05-11T17:44:43.955Z,2.12
2019-05-11T17:47:14.351Z,2.30
2019-05-11T17:49:56.410Z,1.90
2019-05-11T17:52:18.690Z,2.05
2019-05-11T17:54:48.803Z,2.30
2019-05-11T17:57:19.229Z,1.90
2019-05-11T17:59:49.665Z,2.10
2019-05-11T18:02:20.091Z,2.00
2019-05-11T18:04:50.547Z,2.15
2019-05-11T18:07:27.539Z,1.90
2019-05-11T18:09:52.854Z,1.92
2019-05-11T18:12:23.239Z,2.10
2019-05-11T18:14:53.629Z,2.10
2019-05-11T18:17:24.079Z,2.00
2019-05-11T18:19:54.828Z,2.12
2019-05-11T18:22:28.332Z,1.90
2019-05-11T18:24:58.203Z,2.08
2019-05-11T18:27:29.005Z,2.08
2019-05-11T18:29:59.548Z,2.20
2019-05-11T18:32:30.301Z,2.02
2019-05-11T18:35:00.715Z,2.02
2019-05-11T18:37:31.309Z,2.10
2019-05-11T18:40:01.833Z,1.85
2019-05-11T18:42:32.235Z,2.10
2019-05-11T18:45:02.930Z,2.27
2019-05-11T18:47:33.336Z,2.35
2019-05-11T18:50:03.949Z,2.15
2019-05-11T18:52:34.356Z,2.10
2019-05-11T18:55:05.043Z,1.92
2019-05-11T18:57:35.437Z,1.70
2019-05-11T19:00:08.249Z,2.05
2019-05-11T19:02:38.817Z,2.00
2019-05-11T19:05:09.663Z,2.60
2019-05-11T19:07:40.444Z,2.02
2019-05-11T19:10:11.478Z,2.40
2019-05-11T19:12:41.936Z,2.35
2019-05-11T19:15:12.773Z,2.10
2019-05-11T19:17:43.780Z,2.25
2019-05-11T19:20:14.597Z,2.17
2019-05-11T19:22:45.019Z,2.20
2019-05-11T19:25:17.957Z,2.10
2019-05-11T19:27:50.186Z,2.17
2019-05-11T19:30:19.543Z,1.90
2019-05-11T19:32:50.516Z,2.30
2019-05-11T19:35:21.486Z,2.30
2019-05-11T19:37:52.128Z,2.50
2019-05-11T19:40:22.519Z,2.00
2019-05-11T19:42:59.448Z,2.60
2019-05-11T19:45:29.917Z,2.05
2019-05-11T19:48:00.337Z,2.27
2019-05-11T19:50:31.271Z,2.30
2019-05-11T19:53:01.675Z,2.10
2019-05-11T19:55:32.098Z,2.42
2019-05-11T19:58:02.551Z,2.42
2019-05-11T20:00:33.449Z,2.17
2019-05-11T20:03:04.048Z,2.27
2019-05-11T20:05:34.484Z,2.42
2019-05-11T20:08:07.726Z,2.22
2019-05-11T20:10:38.293Z,2.40
2019-05-11T20:13:09.260Z,2.60
2019-05-11T20:15:39.912Z,2.37
2019-05-11T20:18:10.366Z,2.55
2019-05-11T20:20:41.361Z,2.37
2019-05-11T20:23:11.750Z,2.47
2019-05-11T20:25:42.252Z,2.35
2019-05-11T20:28:12.687Z,2.25
2019-05-11T20:30:43.116Z,2.40
2019-05-11T20:33:13.525Z,2.50
2019-05-11T20:35:43.980Z,2.10
2019-05-11T20:38:14.408Z,2.60
2019-05-11T20:40:45.209Z,2.55
2019-05-11T20:43:15.651Z,2.55
2019-05-11T20:45:48.591Z,2.30
2019-05-11T20:48:19.377Z,3.98
2019-05-11T20:50:50.389Z,2.20
2019-05-11T20:53:21.171Z,2.77
2019-05-11T20:55:51.577Z,2.20
2019-05-11T20:58:22.031Z,2.50
2019-05-11T21:00:52.481Z,2.30
2019-05-11T21:03:22.857Z,2.42
2019-05-11T21:05:53.342Z,2.75
2019-05-11T21:08:23.941Z,2.62
2019-05-11T21:10:54.440Z,2.50
2019-05-11T21:13:24.874Z,2.40
2019-05-11T21:15:55.334Z,2.47
2019-05-11T21:18:25.711Z,2.47
2019-05-11T21:20:57.729Z,2.58
2019-05-11T21:23:28.982Z,2.55
2019-05-11T21:25:59.593Z,2.40
2019-05-11T21:28:30.682Z,3.02
2019-05-11T21:31:01.275Z,2.72
2019-05-11T21:33:31.690Z,2.70
2019-05-11T21:36:02.103Z,2.50
2019-05-11T21:38:32.515Z,2.62
2019-05-11T21:41:02.928Z,2.60
2019-05-11T21:43:33.347Z,2.77
2019-05-11T21:46:03.885Z,2.90
2019-05-11T21:48:34.299Z,2.60
2019-05-11T21:51:04.717Z,2.60
2019-05-11T21:53:37.994Z,2.75
2019-05-11T21:56:08.112Z,2.70
2019-05-11T21:58:38.740Z,2.62
2019-05-11T22:01:09.111Z,2.47
2019-05-11T22:03:39.543Z,2.65
2019-05-11T22:06:10.118Z,2.45
2019-05-11T22:08:40.963Z,2.40
2019-05-11T22:11:13.989Z,2.87
2019-05-11T22:13:43.288Z,2.52
2019-05-11T22:16:13.680Z,3.02
2019-05-11T22:18:44.103Z,2.42
2019-05-11T22:21:14.723Z,2.83
2019-05-11T22:23:47.445Z,2.55
2019-05-11T22:26:17.989Z,2.95
2019-05-11T22:28:48.497Z,3.12
2019-05-11T22:31:18.924Z,2.62
2019-05-11T22:33:49.338Z,2.95
2019-05-11T22:36:19.910Z,3.30
2019-05-11T22:38:50.415Z,2.85
2019-05-11T22:41:20.824Z,2.50
2019-05-11T22:43:51.606Z,3.00
2019-05-11T22:46:21.998Z,3.02
2019-05-11T22:48:52.488Z,2.90
2019-05-11T22:51:22.912Z,2.62
2019-05-11T22:53:54.648Z,2.50
2019-05-11T22:56:25.275Z,2.42
2019-05-11T22:58:55.804Z,2.70
2019-05-11T23:01:28.138Z,2.98
2019-05-11T23:03:58.486Z,3.10
2019-05-11T23:06:29.053Z,2.90
2019-05-11T23:08:59.457Z,2.77
2019-05-11T23:11:29.861Z,2.92
2019-05-11T23:14:00.319Z,2.30
2019-05-11T23:16:30.734Z,2.60
2019-05-11T23:19:01.232Z,2.92
2019-05-11T23:21:32.482Z,2.67
2019-05-11T23:24:03.225Z,2.70
2019-05-11T23:26:33.853Z,2.80
2019-05-11T23:29:04.297Z,2.77
2019-05-11T23:31:34.683Z,3.15
2019-05-11T23:34:05.522Z,3.00
2019-05-11T23:36:38.211Z,2.80
2019-05-11T23:39:09.351Z,2.77
2019-05-11T23:41:39.736Z,3.12
2019-05-11T23:44:10.270Z,2.60
2019-05-11T23:46:40.674Z,2.80
2019-05-11T23:49:11.443Z,3.22
2019-05-11T23:51:42.251Z,2.60
2019-05-11T23:54:12.638Z,2.83
2019-05-11T23:56:43.034Z,3.02
2019-05-11T23:59:13.508Z,2.77
